Time;durP1;ratioP1;P1;durP2;ratioP2;P2;SDS_P1;SDS_P2;PMS_P1;PMS_P2;Temp;Humidity;BMP_temperature;BMP_pressure;BME280_temperature;BME280_humidity;BME280_pressure;Samples;Min_cycle;Max_cycle;Signal;HPM_P1;HPM_P2
2022/04/02 00:00:19;;;;;;;3.33;1.20;;;;;;;;;;5151811;27;20043;-80
2022/04/02 00:02:45;;;;;;;1.63;1.35;;;;;;;;;;5150765;27;20060;-81
2022/04/02 00:05:29;;;;;;;;;;;;;;;;;;;;;
2022/04/02 00:08:07;;;;;;;2.38;1.23;;;;;;;;;;5141098;27;44221;-81
2022/04/02 00:10:40;;;;;;;0.30;0.30;;;;;;;;;;5121997;27;21109;-82
2022/04/02 00:13:09;;;;;;;2.65;0.88;;;;;;;;;;5115100;27;20051;-82
2022/04/02 00:15:35;;;;;;;3.53;1.40;;;;;;;;;;5143275;27;20105;-82
2022/04/02 00:18:04;;;;;;;2.63;1.13;;;;;;;;;;5118222;27;20122;-80
2022/04/02 00:20:33;;;;;;;2.75;1.60;;;;;;;;;;5134695;27;21153;-81
2022/04/02 00:25:50;;;;;;;4.40;1.70;;;;;;;;;;5138518;27;20126;-82
2022/04/02 00:28:20;;;;;;;1.40;1.13;;;;;;;;;;5136316;27;20066;-83
2022/04/02 00:30:59;;;;;;;1.77;1.27;;;;;;;;;;5134980;27;20073;-81
2022/04/02 00:33:34;;;;;;;5.70;2.28;;;;;;;;;;5127898;27;20039;-81
2022/04/02 00:36:00;;;;;;;1.05;0.95;;;;;;;;;;5116947;27;20072;-82
2022/04/02 00:38:26;;;;;;;4.38;0.73;;;;;;;;;;5116706;27;20574;-82
2022/04/02 00:40:56;;;;;;;2.78;0.77;;;;;;;;;;5118170;27;20717;-82
2022/04/02 00:43:31;;;;;;;1.55;1.30;;;;;;;;;;5116686;27;20047;-82
2022/04/02 00:46:01;;;;;;;3.22;2.45;;;;;;;;;;5119099;27;20906;-82
2022/04/02 00:48:32;;;;;;;2.28;1.95;;;;;;;;;;5116030;27;20046;-81
2022/04/02 00:51:00;;;;;;;3.70;1.73;;;;;;;;;;5115636;27;20051;-81
2022/04/02 00:53:33;;;;;;;4.95;1.60;;;;;;;;;;5137244;27;20039;-83
2022/04/02 00:56:02;;;;;;;3.58;1.30;;;;;;;;;;5117727;27;20138;-81
2022/04/02 00:58:49;;;;;;;0.55;0.55;;;;;;;;;;5116857;27;20051;-81
2022/04/02 01:01:20;;;;;;;3.88;0.93;;;;;;;;;;5116124;27;20090;-82
2022/04/02 01:03:50;;;;;;;2.63;1.50;;;;;;;;;;5115925;27;20679;-81
2022/04/02 01:06:19;;;;;;;3.95;1.75;;;;;;;;;;5113744;27;20040;-81
2022/04/02 01:08:49;;;;;;;1.25;0.82;;;;;;;;;;5135292;27;20043;-82
2022/04/02 01:11:23;;;;;;;2.00;1.52;;;;;;;;;;5130679;27;20071;-81
2022/04/02 01:13:54;;;;;;;4.68;1.75;;;;;;;;;;5129255;27;20028;-82
2022/04/02 01:16:24;;;;;;;0.67;0.67;;;;;;;;;;5116615;27;20040;-81
2022/04/02 01:18:53;;;;;;;1.63;0.65;;;;;;;;;;5115144;27;20047;-81
2022/04/02 01:21:27;;;;;;;1.88;1.27;;;;;;;;;;5116811;27;20047;-82
2022/04/02 01:24:01;;;;;;;2.70;1.45;;;;;;;;;;5114114;27;20043;-82
2022/04/02 01:26:30;;;;;;;1.85;0.65;;;;;;;;;;5134769;27;20043;-82
2022/04/02 01:28:59;;;;;;;2.95;1.52;;;;;;;;;;5138456;27;20043;-83
2022/04/02 01:31:28;;;;;;;5.97;2.53;;;;;;;;;;5128682;27;20043;-82
2022/04/02 01:34:00;;;;;;;1.45;1.33;;;;;;;;;;5130111;27;20570;-81
2022/04/02 01:36:32;;;;;;;1.55;1.08;;;;;;;;;;5120256;27;20043;-82
2022/04/02 01:39:16;;;;;;;;;;;;;;;;;;;;;
2022/04/02 01:41:42;;;;;;;2.83;1.10;;;;;;;;;;5139209;27;43464;-81
2022/04/02 01:44:09;;;;;;;2.80;1.85;;;;;;;;;;5120291;27;20133;-81
2022/04/02 01:46:35;;;;;;;0.82;0.77;;;;;;;;;;5118053;27;20044;-82
2022/04/02 01:49:03;;;;;;;3.42;1.23;;;;;;;;;;5119721;27;20574;-81
2022/04/02 01:51:30;;;;;;;2.58;1.77;;;;;;;;;;5133249;27;20035;-81
2022/04/02 01:53:59;;;;;;;2.15;1.27;;;;;;;;;;5118044;27;20263;-81
2022/04/02 01:56:27;;;;;;;3.08;1.50;;;;;;;;;;5134132;27;20039;-80
2022/04/02 01:58:53;;;;;;;3.28;2.10;;;;;;;;;;5116178;27;20075;-80
2022/04/02 02:01:20;;;;;;;3.15;1.25;;;;;;;;;;5119169;27;20054;-81
2022/04/02 02:03:46;;;;;;;2.72;1.33;;;;;;;;;;5117329;27;20035;-80
2022/04/02 02:06:12;;;;;;;1.65;1.00;;;;;;;;;;5116581;27;20049;-81
2022/04/02 02:08:39;;;;;;;3.47;1.33;;;;;;;;;;5134528;27;20042;-82
2022/04/02 02:11:05;;;;;;;2.50;1.15;;;;;;;;;;5136092;27;20043;-81
2022/04/02 02:13:34;;;;;;;2.30;1.10;;;;;;;;;;5118737;27;20043;-81
2022/04/02 02:16:05;;;;;;;1.55;0.85;;;;;;;;;;5117202;27;20563;-82
2022/04/02 02:18:41;;;;;;;4.68;1.05;;;;;;;;;;5113704;27;20042;-82
2022/04/02 02:21:07;;;;;;;1.70;1.60;;;;;;;;;;5119610;27;20522;-82
2022/04/02 02:23:41;;;;;;;1.80;1.65;;;;;;;;;;5119766;27;20111;-82
2022/04/02 02:26:14;;;;;;;1.67;1.55;;;;;;;;;;5116899;27;20039;-82
2022/04/02 02:28:41;;;;;;;5.03;1.45;;;;;;;;;;5115041;27;20051;-82
2022/04/02 02:31:10;;;;;;;3.10;1.60;;;;;;;;;;5132498;27;20039;-81
2022/04/02 02:36:29;;;;;;;1.92;1.23;;;;;;;;;;5138118;27;20047;-81
2022/04/02 02:38:57;;;;;;;2.72;0.82;;;;;;;;;;5118334;27;20089;-81
2022/04/02 02:41:28;;;;;;;0.60;0.60;;;;;;;;;;5121599;27;20134;-82
2022/04/02 02:43:54;;;;;;;1.38;0.68;;;;;;;;;;5122364;27;20521;-82
2022/04/02 02:46:35;;;;;;;1.88;1.10;;;;;;;;;;5120201;27;20080;-80
2022/04/02 02:49:02;;;;;;;5.30;1.35;;;;;;;;;;5116343;27;20027;-82
2022/04/02 02:51:36;;;;;;;3.08;0.75;;;;;;;;;;5119278;27;20413;-82
2022/04/02 02:54:03;;;;;;;1.08;0.98;;;;;;;;;;5120434;27;20424;-82
2022/04/02 02:56:36;;;;;;;3.25;1.48;;;;;;;;;;5119116;27;20446;-82
2022/04/02 02:59:08;;;;;;;1.83;1.48;;;;;;;;;;5116747;27;20054;-81
2022/04/02 03:01:39;;;;;;;3.05;1.58;;;;;;;;;;5112541;27;20052;-81
2022/04/02 03:04:13;;;;;;;0.80;0.80;;;;;;;;;;5114568;27;20531;-81
2022/04/02 03:06:39;;;;;;;4.22;1.35;;;;;;;;;;5113193;27;20274;-81
2022/04/02 03:09:05;;;;;;;4.07;1.50;;;;;;;;;;5113276;27;20596;-82
2022/04/02 03:11:38;;;;;;;5.10;0.93;;;;;;;;;;5114362;27;20044;-81
2022/04/02 03:14:10;;;;;;;6.45;2.15;;;;;;;;;;5114376;27;20525;-81
2022/04/02 03:16:38;;;;;;;2.55;0.80;;;;;;;;;;5115005;27;20063;-81
2022/04/02 03:19:06;;;;;;;1.05;0.95;;;;;;;;;;5119677;27;20032;-80
2022/04/02 03:21:32;;;;;;;3.42;1.52;;;;;;;;;;5130661;27;20132;-80
2022/04/02 03:24:08;;;;;;;0.75;0.65;;;;;;;;;;5130801;27;20043;-80
2022/04/02 03:26:40;;;;;;;7.30;1.08;;;;;;;;;;5130252;27;21246;-81
2022/04/02 03:29:06;;;;;;;3.70;3.50;;;;;;;;;;5127418;27;20042;-81
2022/04/02 03:31:35;;;;;;;0.20;0.20;;;;;;;;;;5119935;27;20596;-81
2022/04/02 03:34:01;;;;;;;2.00;1.90;;;;;;;;;;5112111;27;20043;-80
2022/04/02 03:36:28;;;;;;;2.15;1.50;;;;;;;;;;5119173;27;20058;-81
2022/04/02 03:38:57;;;;;;;1.92;1.50;;;;;;;;;;5115018;27;20692;-81
2022/04/02 03:41:25;;;;;;;7.38;1.33;;;;;;;;;;5112498;27;20407;-81
2022/04/02 03:43:53;;;;;;;2.50;1.10;;;;;;;;;;5117914;27;20035;-81
2022/04/02 03:49:05;;;;;;;1.73;1.42;;;;;;;;;;5107221;27;20537;-80
2022/04/02 03:51:33;;;;;;;2.63;1.08;;;;;;;;;;5114579;27;20050;-80
2022/04/02 03:54:01;;;;;;;3.95;1.52;;;;;;;;;;5117851;27;20059;-81
2022/04/02 03:56:28;;;;;;;1.73;1.13;;;;;;;;;;5116345;27;20570;-80
2022/04/02 03:59:04;;;;;;;1.95;1.30;;;;;;;;;;5117151;27;20105;-81
2022/04/02 04:01:31;;;;;;;1.30;1.00;;;;;;;;;;5116246;27;20151;-81
2022/04/02 04:03:57;;;;;;;2.22;1.70;;;;;;;;;;5116356;27;20032;-80
2022/04/02 04:06:23;;;;;;;3.55;1.08;;;;;;;;;;5117773;27;20147;-80
2022/04/02 04:08:52;;;;;;;10.32;0.80;;;;;;;;;;5112547;27;20076;-80
2022/04/02 04:11:18;;;;;;;2.33;2.13;;;;;;;;;;5114968;27;20040;-80
2022/04/02 04:13:50;;;;;;;1.52;0.88;;;;;;;;;;5110589;27;20120;-81
2022/04/02 04:16:19;;;;;;;0.57;0.57;;;;;;;;;;5112781;27;20044;-80
2022/04/02 04:18:45;;;;;;;1.55;1.13;;;;;;;;;;5110131;27;20154;-80
2022/04/02 04:21:14;;;;;;;9.15;1.58;;;;;;;;;;5114974;27;20096;-80
2022/04/02 04:23:47;;;;;;;2.35;1.35;;;;;;;;;;5113282;27;20577;-80
2022/04/02 04:26:13;;;;;;;1.98;1.35;;;;;;;;;;5115406;27;20047;-81
2022/04/02 04:28:40;;;;;;;3.42;1.60;;;;;;;;;;5111896;27;20543;-80
2022/04/02 04:31:06;;;;;;;3.05;1.23;;;;;;;;;;5118377;27;21192;-81
2022/04/02 04:33:32;;;;;;;3.58;1.25;;;;;;;;;;5114170;27;20079;-82
2022/04/02 04:35:59;;;;;;;2.45;2.25;;;;;;;;;;5115663;27;20055;-81
2022/04/02 04:38:34;;;;;;;2.60;1.23;;;;;;;;;;5111146;27;20646;-81
2022/04/02 04:41:01;;;;;;;1.58;1.02;;;;;;;;;;5113203;27;20043;-81
2022/04/02 04:43:27;;;;;;;3.83;2.05;;;;;;;;;;5110080;27;20036;-81
2022/04/02 04:45:53;;;;;;;2.38;1.70;;;;;;;;;;5115027;27;20039;-80
2022/04/02 04:48:23;;;;;;;6.05;1.70;;;;;;;;;;5109853;27;20048;-81
2022/04/02 04:50:49;;;;;;;0.65;0.63;;;;;;;;;;5111493;27;20889;-81
2022/04/02 04:53:19;;;;;;;6.45;1.60;;;;;;;;;;5111027;27;20039;-81
2022/04/02 04:55:45;;;;;;;3.55;1.45;;;;;;;;;;5112724;27;20078;-80
2022/04/02 04:58:16;;;;;;;6.55;2.63;;;;;;;;;;5113161;27;20324;-80
2022/04/02 05:00:42;;;;;;;3.58;1.65;;;;;;;;;;5117292;27;20316;-80
2022/04/02 05:03:09;;;;;;;2.45;1.17;;;;;;;;;;5116622;27;20069;-80
2022/04/02 05:05:38;;;;;;;0.90;0.82;;;;;;;;;;5115546;27;20149;-80
2022/04/02 05:08:07;;;;;;;1.33;1.10;;;;;;;;;;5116840;27;20125;-80
2022/04/02 05:10:41;;;;;;;1.48;1.10;;;;;;;;;;5129876;27;20529;-81
2022/04/02 05:13:13;;;;;;;2.70;1.80;;;;;;;;;;5118967;27;20039;-81
2022/04/02 05:15:43;;;;;;;4.82;1.98;;;;;;;;;;5112279;27;20122;-81
2022/04/02 05:18:11;;;;;;;6.22;1.02;;;;;;;;;;5116799;27;20036;-77
2022/04/02 05:20:48;;;;;;;2.65;1.63;;;;;;;;;;5114368;27;20039;-80
2022/04/02 05:23:14;;;;;;;9.45;3.40;;;;;;;;;;5115765;27;20494;-80
2022/04/02 05:25:40;;;;;;;0.77;0.77;;;;;;;;;;5135820;27;20039;-84
2022/04/02 05:28:09;;;;;;;1.20;0.50;;;;;;;;;;5111569;27;20039;-80
2022/04/02 05:31:03;;;;;;;2.25;1.35;;;;;;;;;;5117175;27;20039;-88
2022/04/02 05:33:30;;;;;;;1.05;0.98;;;;;;;;;;5102325;27;20040;-80
2022/04/02 05:36:16;;;;;;;2.85;2.00;;;;;;;;;;5114216;27;20066;-83
2022/04/02 05:38:58;;;;;;;2.60;1.45;;;;;;;;;;5132889;27;20140;-80
2022/04/02 05:41:32;;;;;;;1.77;1.67;;;;;;;;;;5113919;27;20046;-81
2022/04/02 05:43:58;;;;;;;0.75;0.73;;;;;;;;;;5110990;27;20036;-81
2022/04/02 05:46:27;;;;;;;2.22;1.10;;;;;;;;;;5113141;27;20590;-80
2022/04/02 05:48:53;;;;;;;3.60;1.40;;;;;;;;;;5119303;27;20619;-81
2022/04/02 05:51:25;;;;;;;3.25;2.45;;;;;;;;;;5135939;27;20050;-81
2022/04/02 05:53:54;;;;;;;8.10;2.97;;;;;;;;;;5117849;27;20520;-80
2022/04/02 05:56:37;;;;;;;5.43;2.63;;;;;;;;;;5115213;27;21153;-81
2022/04/02 05:59:10;;;;;;;21.65;4.68;;;;;;;;;;5114381;27;20119;-81
2022/04/02 06:01:49;;;;;;;6.30;4.20;;;;;;;;;;5131363;27;20138;-81
2022/04/02 06:04:20;;;;;;;5.65;3.20;;;;;;;;;;5119415;27;20063;-80
2022/04/02 06:06:46;;;;;;;2.45;1.48;;;;;;;;;;5116002;27;20557;-81
2022/04/02 06:09:13;;;;;;;2.97;1.80;;;;;;;;;;5119507;27;20054;-81
2022/04/02 06:11:46;;;;;;;4.15;1.52;;;;;;;;;;5117600;27;20039;-82
2022/04/02 06:14:18;;;;;;;1.90;1.40;;;;;;;;;;5124052;27;20051;-80
2022/04/02 06:16:59;;;;;;;3.60;1.48;;;;;;;;;;5127090;27;20035;-81
2022/04/02 06:19:33;;;;;;;2.97;1.80;;;;;;;;;;5119115;27;20047;-81
2022/04/02 06:22:06;;;;;;;6.07;1.20;;;;;;;;;;5140343;27;20039;-80
2022/04/02 06:24:54;;;;;;;2.75;2.13;;;;;;;;;;5125908;27;20670;-81
2022/04/02 06:27:20;;;;;;;1.67;0.88;;;;;;;;;;5123726;27;20394;-81
2022/04/02 06:29:51;;;;;;;0.98;0.93;;;;;;;;;;5123377;27;20051;-81
2022/04/02 06:32:49;;;;;;;1.35;0.73;;;;;;;;;;5139261;27;20672;-83
2022/04/02 06:35:19;;;;;;;3.42;1.92;;;;;;;;;;5122355;27;20142;-81
2022/04/02 06:37:50;;;;;;;1.00;0.80;;;;;;;;;;5141358;27;20038;-82
2022/04/02 06:40:19;;;;;;;1.90;1.60;;;;;;;;;;5119988;27;20040;-82
2022/04/02 06:42:47;;;;;;;5.93;2.95;;;;;;;;;;5119389;27;20610;-82
2022/04/02 06:45:16;;;;;;;4.57;1.17;;;;;;;;;;5121654;27;20043;-81
2022/04/02 06:47:52;;;;;;;1.52;1.42;;;;;;;;;;5134595;27;20039;-81
2022/04/02 06:50:19;;;;;;;2.30;0.80;;;;;;;;;;5123875;27;20525;-77
2022/04/02 06:52:50;;;;;;;0.73;0.57;;;;;;;;;;5139308;27;20097;-80
2022/04/02 06:55:27;;;;;;;4.68;2.05;;;;;;;;;;5122715;27;20508;-78
2022/04/02 06:58:15;;;;;;;0.45;0.45;;;;;;;;;;5130170;27;20047;-79
2022/04/02 07:00:47;;;;;;;1.98;1.23;;;;;;;;;;5124767;27;20083;-81
2022/04/02 07:03:16;;;;;;;6.85;1.05;;;;;;;;;;5126314;27;20047;-81
2022/04/02 07:05:42;;;;;;;0.50;0.50;;;;;;;;;;5118509;27;20228;-81
2022/04/02 07:08:11;;;;;;;2.08;1.23;;;;;;;;;;5140655;27;20421;-81
2022/04/02 07:10:37;;;;;;;1.55;1.10;;;;;;;;;;5123862;27;20516;-79
2022/04/02 07:13:04;;;;;;;1.02;0.82;;;;;;;;;;5140033;27;20043;-76
2022/04/02 07:15:32;;;;;;;3.03;1.27;;;;;;;;;;5139068;27;20064;-78
2022/04/02 07:18:06;;;;;;;2.45;1.40;;;;;;;;;;5140563;27;20043;-78
2022/04/02 07:20:40;;;;;;;4.68;1.38;;;;;;;;;;5117912;27;20047;-80
2022/04/02 07:23:12;;;;;;;11.95;3.83;;;;;;;;;;5116445;27;20028;-82
2022/04/02 07:25:48;;;;;;;18.33;4.00;;;;;;;;;;5135730;27;20043;-81
2022/04/02 07:28:15;;;;;;;5.00;2.15;;;;;;;;;;5119640;27;20042;-80
2022/04/02 07:30:41;;;;;;;6.75;2.42;;;;;;;;;;5137178;27;20596;-79
2022/04/02 07:33:10;;;;;;;2.80;2.17;;;;;;;;;;5122946;27;20043;-79
2022/04/02 07:35:44;;;;;;;1.70;1.02;;;;;;;;;;5132465;27;20597;-78
2022/04/02 07:38:16;;;;;;;2.90;1.63;;;;;;;;;;5117013;27;20039;-77
2022/04/02 07:41:00;;;;;;;2.08;0.90;;;;;;;;;;5118062;27;20050;-76
2022/04/02 07:43:41;;;;;;;0.98;0.88;;;;;;;;;;5118113;27;20050;-77
2022/04/02 07:46:11;;;;;;;2.50;1.25;;;;;;;;;;5136181;27;20047;-77
2022/04/02 07:48:38;;;;;;;3.22;1.13;;;;;;;;;;5135098;27;20521;-77
2022/04/02 07:51:24;;;;;;;1.80;1.10;;;;;;;;;;5136348;27;20074;-76
2022/04/02 07:53:51;;;;;;;3.25;1.45;;;;;;;;;;5135994;27;20551;-77
2022/04/02 07:56:25;;;;;;;1.73;1.13;;;;;;;;;;5116488;27;20598;-77
2022/04/02 07:58:53;;;;;;;3.08;2.08;;;;;;;;;;5131563;27;20625;-77
2022/04/02 08:01:20;;;;;;;5.38;2.42;;;;;;;;;;5135399;27;20142;-77
2022/04/02 08:03:47;;;;;;;2.38;1.73;;;;;;;;;;5136905;27;20034;-77
2022/04/02 08:06:14;;;;;;;1.92;1.67;;;;;;;;;;5118371;27;20039;-79
2022/04/02 08:08:40;;;;;;;10.05;2.97;;;;;;;;;;5130288;27;20036;-77
2022/04/02 08:11:08;;;;;;;2.55;1.45;;;;;;;;;;5135382;27;20043;-76
2022/04/02 08:13:35;;;;;;;3.42;2.35;;;;;;;;;;5134390;27;20050;-81
2022/04/02 08:16:01;;;;;;;7.95;3.28;;;;;;;;;;5116525;27;20096;-78
2022/04/02 08:18:28;;;;;;;3.95;1.30;;;;;;;;;;5135113;27;20043;-76
2022/04/02 08:20:54;;;;;;;6.88;2.00;;;;;;;;;;5130012;27;20043;-76
2022/04/02 08:23:20;;;;;;;9.60;3.58;;;;;;;;;;5133743;27;20608;-75
2022/04/02 08:26:05;;;;;;;6.75;2.67;;;;;;;;;;5132046;27;20152;-76
2022/04/02 08:28:41;;;;;;;1.48;1.30;;;;;;;;;;5134482;27;20043;-75
2022/04/02 08:31:19;;;;;;;1.60;1.40;;;;;;;;;;5131416;27;20039;-75
2022/04/02 08:33:45;;;;;;;1.88;1.13;;;;;;;;;;5133251;27;20043;-76
2022/04/02 08:36:20;;;;;;;2.55;1.38;;;;;;;;;;5117528;27;20122;-75
2022/04/02 08:38:54;;;;;;;3.60;1.65;;;;;;;;;;5134973;27;20035;-75
2022/04/02 08:41:39;;;;;;;3.35;1.40;;;;;;;;;;5110389;27;20046;-77
2022/04/02 08:44:05;;;;;;;2.65;1.10;;;;;;;;;;5130462;27;20042;-77
2022/04/02 08:46:35;;;;;;;2.78;1.63;;;;;;;;;;5133136;27;20043;-80
2022/04/02 08:49:10;;;;;;;3.97;1.42;;;;;;;;;;5133035;27;20055;-79
2022/04/02 08:51:41;;;;;;;1.30;0.75;;;;;;;;;;5130167;27;20047;-76
2022/04/02 08:54:19;;;;;;;2.47;1.60;;;;;;;;;;5134666;27;20043;-76
2022/04/02 08:56:47;;;;;;;1.85;1.00;;;;;;;;;;5134025;27;20047;-79
2022/04/02 08:59:20;;;;;;;1.42;1.17;;;;;;;;;;5135309;27;20051;-79
2022/04/02 09:01:49;;;;;;;2.35;1.45;;;;;;;;;;5133708;27;20059;-79
2022/04/02 09:04:15;;;;;;;4.40;1.33;;;;;;;;;;5113668;27;20079;-80
2022/04/02 09:06:47;;;;;;;1.40;1.02;;;;;;;;;;5132006;27;20054;-78
2022/04/02 09:09:13;;;;;;;2.65;0.88;;;;;;;;;;5119922;27;20038;-77
2022/04/02 09:11:39;;;;;;;2.70;1.92;;;;;;;;;;5116470;27;20138;-75
2022/04/02 09:14:12;;;;;;;1.08;1.05;;;;;;;;;;5108638;27;20047;-76
2022/04/02 09:16:50;;;;;;;1.85;1.27;;;;;;;;;;5128303;27;20063;-80
2022/04/02 09:19:30;;;;;;;3.17;1.10;;;;;;;;;;5127786;27;20081;-80
2022/04/02 09:22:05;;;;;;;6.50;2.15;;;;;;;;;;5128920;27;20054;-78
2022/04/02 09:24:54;;;;;;;3.42;1.80;;;;;;;;;;5130634;27;20047;-76
2022/04/02 09:27:33;;;;;;;3.13;1.50;;;;;;;;;;5115105;27;20492;-79
2022/04/02 09:30:09;;;;;;;2.35;1.20;;;;;;;;;;5133297;27;22235;-77
2022/04/02 09:32:50;;;;;;;1.75;1.15;;;;;;;;;;5131692;27;20046;-82
2022/04/02 09:35:16;;;;;;;6.60;2.43;;;;;;;;;;5114347;27;20035;-79
2022/04/02 09:37:55;;;;;;;0.50;0.50;;;;;;;;;;5110328;27;20323;-78
2022/04/02 09:40:25;;;;;;;1.25;1.08;;;;;;;;;;5132101;27;20046;-79
2022/04/02 09:42:52;;;;;;;0.77;0.73;;;;;;;;;;5132162;27;20049;-79
2022/04/02 09:45:21;;;;;;;3.22;1.23;;;;;;;;;;5132264;27;20039;-79
2022/04/02 09:47:47;;;;;;;2.75;1.02;;;;;;;;;;5115772;27;20578;-78
2022/04/02 09:50:17;;;;;;;1.60;1.02;;;;;;;;;;5130465;27;20039;-79
2022/04/02 09:52:49;;;;;;;1.50;0.75;;;;;;;;;;5131662;27;20043;-78
2022/04/02 09:55:17;;;;;;;1.15;0.90;;;;;;;;;;5133781;27;20068;-78
2022/04/02 09:57:46;;;;;;;1.25;1.15;;;;;;;;;;5119478;27;20123;-78
2022/04/02 10:00:13;;;;;;;3.22;2.17;;;;;;;;;;5130728;27;20434;-78
2022/04/02 10:02:48;;;;;;;3.30;1.50;;;;;;;;;;5135492;27;20043;-78
2022/04/02 10:05:19;;;;;;;1.20;1.10;;;;;;;;;;5130908;27;20042;-78
2022/04/02 10:08:04;;;;;;;1.10;0.88;;;;;;;;;;5133574;27;20043;-78
2022/04/02 10:10:30;;;;;;;1.27;0.85;;;;;;;;;;5130168;27;20540;-78
2022/04/02 10:15:55;;;;;;;1.23;1.15;;;;;;;;;;5134229;27;20094;-79
2022/04/02 10:18:36;;;;;;;6.38;1.15;;;;;;;;;;5123452;27;20465;-78
2022/04/02 10:21:05;;;;;;;0.93;0.80;;;;;;;;;;5132806;27;21113;-78
2022/04/02 10:23:34;;;;;;;0.85;0.80;;;;;;;;;;5134959;27;20039;-78
2022/04/02 10:26:17;;;;;;;1.73;1.55;;;;;;;;;;5133525;27;20044;-78
2022/04/02 10:29:21;;;;;;;;;;;;;;;;;;;;;
2022/04/02 10:38:12;;;;;;;0.95;0.80;;;;;;;;;;5113918;27;20040;-78
2022/04/02 10:40:51;;;;;;;2.10;1.45;;;;;;;;;;5116003;27;20039;-77
2022/04/02 10:43:28;;;;;;;3.58;1.15;;;;;;;;;;5136841;27;20046;-77
2022/04/02 10:45:56;;;;;;;1.45;1.02;;;;;;;;;;5124682;27;20027;-78
2022/04/02 10:48:35;;;;;;;1.92;1.13;;;;;;;;;;5113036;27;20063;-78
2022/04/02 10:51:08;;;;;;;1.10;0.90;;;;;;;;;;5135981;27;20040;-78
2022/04/02 10:53:35;;;;;;;3.30;1.38;;;;;;;;;;5130956;27;20047;-82
2022/04/02 10:56:09;;;;;;;2.05;1.13;;;;;;;;;;5114632;27;20084;-78
2022/04/02 10:58:43;;;;;;;2.28;1.45;;;;;;;;;;5131987;27;20052;-78
2022/04/02 11:01:11;;;;;;;1.75;1.13;;;;;;;;;;5107194;27;20044;-76
2022/04/02 11:03:39;;;;;;;2.40;0.90;;;;;;;;;;5091423;27;20076;-78
2022/04/02 11:06:05;;;;;;;1.92;1.50;;;;;;;;;;5090071;28;20044;-79
2022/04/02 11:08:32;;;;;;;2.95;1.65;;;;;;;;;;5090472;28;20040;-80
2022/04/02 11:11:19;;;;;;;1.33;1.20;;;;;;;;;;5093132;27;20635;-80
2022/04/02 11:13:45;;;;;;;4.72;1.35;;;;;;;;;;5089893;28;20043;-80
2022/04/02 11:16:15;;;;;;;2.30;1.52;;;;;;;;;;5089487;28;20915;-79
2022/04/02 11:19:54;;;;;;;4.03;1.30;;;;;;;;;;5090689;27;20040;-79
2022/04/02 11:21:28;;;;;;;1.17;1.08;;;;;;;;;;5094018;27;20040;-79
2022/04/02 11:24:00;;;;;;;1.67;0.88;;;;;;;;;;5090499;28;20100;-80
2022/04/02 11:26:27;;;;;;;;;;;;;;;;;;5089391;28;20123;-80
2022/04/02 11:28:56;;;;;;;3.55;1.20;;;;;;;;;;5091793;27;19997;-80
2022/04/02 11:31:27;;;;;;;1.33;1.00;;;;;;;;;;5088300;28;20160;-79
2022/04/02 11:33:54;;;;;;;1.38;1.27;;;;;;;;;;5093423;27;20051;-79
2022/04/02 11:36:39;;;;;;;2.65;1.83;;;;;;;;;;5091474;27;20119;-79
2022/04/02 11:39:10;;;;;;;1.50;1.02;;;;;;;;;;5087864;28;20120;-80
2022/04/02 11:41:41;;;;;;;2.53;1.15;;;;;;;;;;5087774;27;20851;-79
2022/04/02 11:44:14;;;;;;;1.53;1.10;;;;;;;;;;5091126;28;20533;-80
2022/04/02 11:47:03;;;;;;;1.25;1.15;;;;;;;;;;5096105;27;20040;-80
2022/04/02 11:49:29;;;;;;;2.00;1.75;;;;;;;;;;5084885;28;20987;-79
2022/04/02 11:52:03;;;;;;;1.45;0.95;;;;;;;;;;5090571;27;20048;-79
2022/04/02 11:54:29;;;;;;;1.88;0.77;;;;;;;;;;5093746;27;20129;-81
2022/04/02 11:57:08;;;;;;;0.82;0.80;;;;;;;;;;5089019;28;20055;-80
2022/04/02 11:59:35;;;;;;;2.58;1.60;;;;;;;;;;5088268;28;20153;-78
2022/04/02 12:02:02;;;;;;;2.72;1.50;;;;;;;;;;5100052;27;20119;-79
2022/04/02 12:04:29;;;;;;;1.73;1.30;;;;;;;;;;5110469;27;20036;-79
2022/04/02 12:07:03;;;;;;;1.73;1.40;;;;;;;;;;5109974;27;21156;-78
2022/04/02 12:09:29;;;;;;;2.38;1.58;;;;;;;;;;5112264;27;20043;-77
2022/04/02 12:14:31;;;;;;;1.25;1.15;;;;;;;;;;2960523;22;20050;-78
2022/04/02 12:17:17;;;;;;;0.77;0.73;;;;;;;;;;4977737;28;20050;-78
2022/04/02 12:19:50;;;;;;;2.08;1.25;;;;;;;;;;4981080;28;20081;-78
2022/04/02 12:22:16;;;;;;;;;;;;;;;;;;4991431;28;20049;-78
2022/04/02 12:24:42;;;;;;;3.92;0.88;;;;;;;;;;4989439;28;19921;-78
2022/04/02 12:27:08;;;;;;;1.67;1.17;;;;;;;;;;4985681;28;20050;-78
2022/04/02 12:29:35;;;;;;;1.83;0.80;;;;;;;;;;4994908;28;20069;-78
2022/04/02 12:32:02;;;;;;;3.13;1.25;;;;;;;;;;4972654;28;20042;-78
2022/04/02 12:34:28;;;;;;;2.00;1.23;;;;;;;;;;4989063;28;20053;-77
2022/04/02 12:37:01;;;;;;;2.28;1.65;;;;;;;;;;4991751;28;20085;-78
2022/04/02 12:39:27;;;;;;;2.40;2.20;;;;;;;;;;4990169;28;20113;-78
2022/04/02 12:41:54;;;;;;;2.30;1.45;;;;;;;;;;4974802;28;20051;-77
2022/04/02 12:44:22;;;;;;;1.83;1.20;;;;;;;;;;4971246;28;20106;-77
2022/04/02 12:46:49;;;;;;;1.33;1.05;;;;;;;;;;4981951;28;20232;-78
2022/04/02 12:49:31;;;;;;;1.48;1.00;;;;;;;;;;4985072;28;20092;-78
2022/04/02 12:52:10;;;;;;;2.80;1.40;;;;;;;;;;4985177;28;20129;-78
2022/04/02 12:54:37;;;;;;;2.53;0.98;;;;;;;;;;4983319;28;21173;-78
2022/04/02 12:57:13;;;;;;;1.92;1.27;;;;;;;;;;4984073;28;20440;-78
2022/04/02 12:59:43;;;;;;;3.10;1.30;;;;;;;;;;4985255;28;20069;-78
2022/04/02 13:02:17;;;;;;;2.55;1.42;;;;;;;;;;4971138;28;20117;-77
2022/04/02 13:04:52;;;;;;;3.08;1.60;;;;;;;;;;4985361;28;20101;-78
2022/04/02 13:07:21;;;;;;;1.88;1.25;;;;;;;;;;4965671;28;20155;-78
2022/04/02 13:09:48;;;;;;;1.88;1.45;;;;;;;;;;4974997;28;20126;-77
2022/04/02 13:12:20;;;;;;;1.85;1.25;;;;;;;;;;4986699;28;20572;-78
2022/04/02 13:14:49;;;;;;;3.22;1.95;;;;;;;;;;4974564;28;20661;-78
2022/04/02 13:17:20;;;;;;;0.77;0.60;;;;;;;;;;4984597;28;20130;-78
2022/04/02 13:22:50;;;;;;;2.00;1.30;;;;;;;;;;4989465;28;20135;-78
2022/04/02 13:25:17;;;;;;;3.38;1.55;;;;;;;;;;5000684;28;20562;-78
2022/04/02 13:27:56;;;;;;;2.42;2.10;;;;;;;;;;4996959;28;20072;-78
2022/04/02 13:30:27;;;;;;;1.55;1.20;;;;;;;;;;4966765;28;20162;-78
2022/04/02 13:33:12;;;;;;;4.78;1.92;;;;;;;;;;4973491;28;20908;-78
2022/04/02 13:35:47;;;;;;;4.13;1.73;;;;;;;;;;4986525;28;21034;-78
2022/04/02 13:38:28;;;;;;;6.18;1.75;;;;;;;;;;4988056;28;20046;-78
2022/04/02 13:40:59;;;;;;;1.67;1.05;;;;;;;;;;4969196;28;20046;-77
2022/04/02 13:43:34;;;;;;;3.53;2.00;;;;;;;;;;4987901;28;20031;-78
2022/04/02 13:46:26;;;;;;;1.75;1.45;;;;;;;;;;4973824;28;20520;-77
2022/04/02 13:49:09;;;;;;;1.45;1.10;;;;;;;;;;4987788;28;20490;-78
2022/04/02 13:51:35;;;;;;;2.50;1.20;;;;;;;;;;4986397;28;20046;-78
2022/04/02 13:54:05;;;;;;;1.75;1.00;;;;;;;;;;4970620;28;20567;-78
2022/04/02 13:56:41;;;;;;;1.88;1.33;;;;;;;;;;4990614;28;20054;-77
2022/04/02 13:59:11;;;;;;;1.30;0.98;;;;;;;;;;4993373;28;20038;-78
2022/04/02 14:01:39;;;;;;;5.63;1.42;;;;;;;;;;4990629;28;20050;-78
2022/04/02 14:04:12;;;;;;;2.55;1.25;;;;;;;;;;4987181;28;20050;-78
2022/04/02 14:06:42;;;;;;;1.80;1.17;;;;;;;;;;4968975;28;20061;-78
2022/04/02 14:09:10;;;;;;;5.15;1.60;;;;;;;;;;4976219;28;20042;-78
2022/04/02 14:11:40;;;;;;;2.63;1.63;;;;;;;;;;4988976;28;20080;-78
2022/04/02 14:14:06;;;;;;;2.55;1.83;;;;;;;;;;4987793;28;20560;-77
2022/04/02 14:16:34;;;;;;;2.90;1.75;;;;;;;;;;4994013;28;20119;-78
2022/04/02 14:19:04;;;;;;;2.55;1.50;;;;;;;;;;4994346;27;20073;-78
2022/04/02 14:21:31;;;;;;;1.20;0.80;;;;;;;;;;4994218;28;20120;-78
2022/04/02 14:24:03;;;;;;;2.15;1.10;;;;;;;;;;4990860;28;20049;-77
2022/04/02 14:26:48;;;;;;;4.88;2.00;;;;;;;;;;4996151;27;20245;-78
2022/04/02 14:29:29;;;;;;;3.03;1.38;;;;;;;;;;4981302;27;20532;-77
2022/04/02 14:32:04;;;;;;;3.42;1.25;;;;;;;;;;4972650;28;20047;-82
2022/04/02 14:34:52;;;;;;;1.80;1.35;;;;;;;;;;5004833;28;20522;-77
2022/04/02 14:37:37;;;;;;;2.25;1.52;;;;;;;;;;4985339;28;20319;-78
2022/04/02 14:40:22;;;;;;;2.33;1.33;;;;;;;;;;4981758;28;20455;-77
2022/04/02 14:42:51;;;;;;;4.25;1.88;;;;;;;;;;4988464;28;20199;-77
2022/04/02 14:45:36;;;;;;;1.30;1.00;;;;;;;;;;5001917;28;20030;-77
2022/04/02 14:48:12;;;;;;;2.22;1.50;;;;;;;;;;4983225;28;20121;-78
2022/04/02 14:50:56;;;;;;;2.67;1.40;;;;;;;;;;5000078;27;20050;-77
2022/04/02 14:53:52;;;;;;;2.78;1.50;;;;;;;;;;5001178;28;20676;-77
2022/04/02 14:56:21;;;;;;;0.85;0.77;;;;;;;;;;5002735;27;20054;-77
2022/04/02 14:59:06;;;;;;;4.47;1.92;;;;;;;;;;4989818;28;20058;-78
2022/04/02 15:01:51;;;;;;;2.58;1.40;;;;;;;;;;4986740;28;20046;-77
2022/04/02 15:04:35;;;;;;;4.20;1.60;;;;;;;;;;5001470;28;20052;-77
2022/04/02 15:07:20;;;;;;;3.20;1.58;;;;;;;;;;4999433;27;20251;-78
2022/04/02 15:10:02;;;;;;;1.70;1.30;;;;;;;;;;4993020;28;20050;-77
2022/04/02 15:12:29;;;;;;;2.53;1.70;;;;;;;;;;5010345;27;20042;-78
2022/04/02 15:15:02;;;;;;;1.70;1.30;;;;;;;;;;4997748;27;20051;-78
2022/04/02 15:17:30;;;;;;;1.95;1.33;;;;;;;;;;5000281;28;20678;-78
2022/04/02 15:20:08;;;;;;;1.85;1.17;;;;;;;;;;5000960;28;20096;-78
2022/04/02 15:22:35;;;;;;;1.73;1.05;;;;;;;;;;5001780;28;20145;-84
2022/04/02 15:25:14;;;;;;;2.38;1.45;;;;;;;;;;4981192;28;20997;-80
2022/04/02 15:27:48;;;;;;;2.42;1.45;;;;;;;;;;4977460;28;20061;-85
2022/04/02 15:30:18;;;;;;;3.53;1.50;;;;;;;;;;4994173;28;20039;-84
2022/04/02 15:32:44;;;;;;;1.77;1.20;;;;;;;;;;4984974;28;20077;-82
2022/04/02 15:35:14;;;;;;;4.82;1.95;;;;;;;;;;4989262;27;20046;-81